createdAt,value
2024-02-03T11:07:38.839Z,3.55
2024-02-03T11:10:06.906Z,3.30
2024-02-03T11:12:37.929Z,3.40
2024-02-03T11:15:12.181Z,3.20
2024-02-03T11:17:44.118Z,3.40
2024-02-03T11:20:22.008Z,3.20
2024-02-03T11:22:57.824Z,3.10
2024-02-03T11:25:26.465Z,3.15
2024-02-03T11:27:53.708Z,3.10
2024-02-03T11:30:20.929Z,3.00
2024-02-03T11:32:49.352Z,3.50
2024-02-03T11:35:17.426Z,3.08
2024-02-03T11:37:45.013Z,3.10
2024-02-03T11:40:12.509Z,3.00
2024-02-03T11:42:39.778Z,3.15
2024-02-03T11:45:30.870Z,2.92
2024-02-03T11:48:00.301Z,3.38
2024-02-03T11:50:29.226Z,3.70
2024-02-03T11:52:57.883Z,4.03
2024-02-03T11:55:25.260Z,3.50
2024-02-03T11:57:52.543Z,3.58
2024-02-03T12:00:21.464Z,3.88
2024-02-03T12:02:48.970Z,3.97
2024-02-03T12:05:16.832Z,3.95
2024-02-03T12:07:44.184Z,3.67
2024-02-03T12:10:11.682Z,3.70
2024-02-03T12:12:40.705Z,4.10
2024-02-03T12:15:10.356Z,4.00
2024-02-03T12:17:37.666Z,3.45
2024-02-03T12:20:05.261Z,3.92
2024-02-03T12:22:35.549Z,3.47
2024-02-03T12:25:03.033Z,3.40
2024-02-03T12:27:30.652Z,3.60
2024-02-03T12:29:58.797Z,3.88
2024-02-03T12:32:25.952Z,3.70
2024-02-03T12:34:54.161Z,3.72
2024-02-03T12:37:21.392Z,3.80
2024-02-03T12:39:48.563Z,3.70
2024-02-03T12:42:15.842Z,3.38
2024-02-03T12:44:42.978Z,4.07
2024-02-03T12:47:10.102Z,3.70
2024-02-03T12:49:37.322Z,3.97
2024-02-03T12:52:06.186Z,3.53
2024-02-03T12:54:33.384Z,3.80
2024-02-03T12:57:00.607Z,4.22
2024-02-03T12:59:27.723Z,3.92
2024-02-03T13:01:54.994Z,3.35
2024-02-03T13:04:22.122Z,3.97
2024-02-03T13:06:49.297Z,4.75
2024-02-03T13:09:16.911Z,3.88
2024-02-03T13:11:44.032Z,3.85
2024-02-03T13:14:11.117Z,4.28
2024-02-03T13:16:38.585Z,4.07
2024-02-03T13:19:05.801Z,4.32
2024-02-03T13:21:33.019Z,3.65
2024-02-03T13:24:00.153Z,3.80
2024-02-03T13:26:27.391Z,3.63
2024-02-03T13:28:54.652Z,3.67
2024-02-03T13:31:27.164Z,3.55
2024-02-03T13:33:54.627Z,4.50
2024-02-03T13:36:22.001Z,3.35
2024-02-03T13:38:49.704Z,3.60
2024-02-03T13:41:16.946Z,3.30
2024-02-03T13:43:44.087Z,3.70
2024-02-03T13:46:11.524Z,3.95
2024-02-03T13:48:38.862Z,3.78
2024-02-03T13:51:06.707Z,3.72
2024-02-03T13:53:33.927Z,4.07
2024-02-03T13:56:02.711Z,4.15
2024-02-03T13:58:29.857Z,4.13
2024-02-03T14:00:57.030Z,3.42
2024-02-03T14:03:24.266Z,3.47
2024-02-03T14:05:51.456Z,3.58
2024-02-03T14:08:20.815Z,4.47
2024-02-03T14:10:49.620Z,4.47
2024-02-03T14:13:16.763Z,3.63
2024-02-03T14:15:44.936Z,4.32
2024-02-03T14:18:12.092Z,4.22
2024-02-03T14:20:39.817Z,3.65
2024-02-03T14:23:06.902Z,3.60
2024-02-03T14:25:36.328Z,4.20
2024-02-03T14:28:04.982Z,3.50
2024-02-03T14:30:32.146Z,3.58
2024-02-03T14:32:59.296Z,3.60
2024-02-03T14:35:26.554Z,4.18
2024-02-03T14:37:53.768Z,4.80
2024-02-03T14:40:20.902Z,3.78
2024-02-03T14:42:48.217Z,4.93
2024-02-03T14:45:16.312Z,3.90
2024-02-03T14:47:43.433Z,3.78
2024-02-03T14:50:11.023Z,4.00
2024-02-03T14:52:38.315Z,3.58
2024-02-03T14:55:05.889Z,3.55
2024-02-03T14:57:33.008Z,4.03
2024-02-03T15:00:00.145Z,4.18
2024-02-03T15:02:27.273Z,3.85
2024-02-03T15:04:54.469Z,3.63
2024-02-03T15:07:21.663Z,4.00
2024-02-03T15:09:49.098Z,4.30
2024-02-03T15:12:16.362Z,3.70
2024-02-03T15:14:43.509Z,3.67
2024-02-03T15:17:10.602Z,4.07
2024-02-03T15:19:37.914Z,4.75
2024-02-03T15:22:05.232Z,4.70
2024-02-03T15:24:32.492Z,4.90
2024-02-03T15:26:59.696Z,4.35
2024-02-03T15:29:26.811Z,4.47
2024-02-03T15:31:53.983Z,4.72
2024-02-03T15:34:21.205Z,4.60
2024-02-03T15:36:49.571Z,4.82
2024-02-03T15:39:16.803Z,3.95
2024-02-03T15:41:43.939Z,4.40
2024-02-03T15:44:12.002Z,4.50
2024-02-03T15:46:44.757Z,5.40
2024-02-03T15:49:13.803Z,5.25
2024-02-03T15:51:41.037Z,4.78
2024-02-03T15:54:09.063Z,4.78
2024-02-03T15:56:37.105Z,4.72
2024-02-03T15:59:04.898Z,4.82
2024-02-03T16:01:32.359Z,5.03
2024-02-03T16:03:59.924Z,4.65
2024-02-03T16:06:27.265Z,4.75
2024-02-03T16:08:54.413Z,4.85
2024-02-03T16:11:21.552Z,5.00
2024-02-03T16:13:49.767Z,5.75
2024-02-03T16:16:17.648Z,5.22
2024-02-03T16:18:44.996Z,4.70
2024-02-03T16:21:12.150Z,4.70
2024-02-03T16:23:39.237Z,4.72
2024-02-03T16:26:06.784Z,5.15
2024-02-03T16:28:34.616Z,5.22
2024-02-03T16:31:01.874Z,5.28
2024-02-03T16:33:30.930Z,4.47
2024-02-03T16:35:58.376Z,5.13
2024-02-03T16:38:26.058Z,5.05
2024-02-03T16:40:53.729Z,4.40
2024-02-03T16:43:20.934Z,4.90
2024-02-03T16:45:48.095Z,4.82
2024-02-03T16:48:15.402Z,5.07
2024-02-03T16:50:42.757Z,5.43
2024-02-03T16:53:10.755Z,4.32
2024-02-03T16:55:37.918Z,6.55
2024-02-03T16:58:06.203Z,7.97
2024-02-03T17:00:38.416Z,6.13
2024-02-03T17:03:06.643Z,5.05
2024-02-03T17:05:33.899Z,4.97
2024-02-03T17:08:01.325Z,4.38
2024-02-03T17:10:28.510Z,4.72
2024-02-03T17:12:55.807Z,4.63
2024-02-03T17:15:23.185Z,5.38
2024-02-03T17:17:50.798Z,5.05
2024-02-03T17:20:18.472Z,5.57
2024-02-03T17:22:45.727Z,5.32
2024-02-03T17:25:12.872Z,5.57
2024-02-03T17:27:41.938Z,4.88
2024-02-03T17:30:14.706Z,5.82
2024-02-03T17:35:27.164Z,5.40
2024-02-03T17:37:54.372Z,5.88
2024-02-03T17:40:21.506Z,5.05
2024-02-03T17:42:50.813Z,5.30
2024-02-03T17:45:20.182Z,5.10
2024-02-03T17:47:48.627Z,5.07
2024-02-03T17:50:19.707Z,5.95
2024-02-03T17:52:49.845Z,5.75
2024-02-03T17:55:35.650Z,5.60
2024-02-03T17:58:02.833Z,8.48
2024-02-03T18:00:30.000Z,5.95
2024-02-03T18:02:57.164Z,5.50
2024-02-03T18:05:24.434Z,5.20
2024-02-03T18:07:51.665Z,5.22
2024-02-03T18:10:18.729Z,4.90
2024-02-03T18:12:46.060Z,5.13
2024-02-03T18:15:13.452Z,5.25
2024-02-03T18:17:40.671Z,5.40
2024-02-03T18:20:10.321Z,5.50
2024-02-03T18:22:37.489Z,5.10
2024-02-03T18:25:05.051Z,4.90
2024-02-03T18:27:32.232Z,5.50
2024-02-03T18:29:59.417Z,5.15
2024-02-03T18:32:26.896Z,5.38
2024-02-03T18:34:54.072Z,5.32
2024-02-03T18:37:21.190Z,6.40
2024-02-03T18:39:53.732Z,5.43
2024-02-03T18:42:21.581Z,6.07
2024-02-03T18:44:48.803Z,6.57
2024-02-03T18:47:15.918Z,6.35
2024-02-03T18:49:43.277Z,6.90
2024-02-03T18:52:10.495Z,7.03
2024-02-03T18:54:37.628Z,7.10
2024-02-03T18:57:05.037Z,6.72
2024-02-03T18:59:32.141Z,6.47
2024-02-03T19:01:59.233Z,7.10
2024-02-03T19:04:26.458Z,6.95
2024-02-03T19:06:53.755Z,7.35
2024-02-03T19:09:21.725Z,6.38
2024-02-03T19:11:51.015Z,6.82
2024-02-03T19:14:39.695Z,8.18
2024-02-03T19:17:07.025Z,7.28
2024-02-03T19:19:36.445Z,6.82
2024-02-03T19:22:05.182Z,7.13
2024-02-03T19:24:32.447Z,7.25
2024-02-03T19:26:59.560Z,6.70
2024-02-03T19:29:27.946Z,6.82
2024-02-03T19:31:55.060Z,6.80
2024-02-03T19:34:23.174Z,7.40
2024-02-03T19:36:50.309Z,7.43
2024-02-03T19:39:17.459Z,6.90
2024-02-03T19:41:44.606Z,6.60
2024-02-03T19:44:11.945Z,7.18
2024-02-03T19:46:40.038Z,20.52
2024-02-03T19:49:08.269Z,8.90
2024-02-03T19:51:35.819Z,8.70
2024-02-03T19:54:02.974Z,7.80
2024-02-03T19:56:30.073Z,7.63
2024-02-03T19:58:57.210Z,8.00
2024-02-03T20:01:24.525Z,8.05
2024-02-03T20:06:36.045Z,8.23
2024-02-03T20:09:03.587Z,7.93
2024-02-03T20:11:30.800Z,7.80
2024-02-03T20:13:57.994Z,18.35
2024-02-03T20:16:25.311Z,9.80
2024-02-03T20:18:52.675Z,9.25
2024-02-03T20:21:38.310Z,10.02
2024-02-03T20:24:05.745Z,10.10
2024-02-03T20:26:32.828Z,9.20
2024-02-03T20:28:59.966Z,9.50
2024-02-03T20:31:27.180Z,9.77
2024-02-03T20:33:54.561Z,8.85
2024-02-03T20:36:21.750Z,9.40
2024-02-03T20:39:10.110Z,8.65
2024-02-03T20:41:37.471Z,9.27
2024-02-03T20:44:06.236Z,8.05
2024-02-03T20:46:33.397Z,9.20
2024-02-03T20:49:00.696Z,8.15
2024-02-03T20:51:27.991Z,8.68
2024-02-03T20:53:55.240Z,8.45
2024-02-03T20:57:00.062Z,8.88
2024-02-03T20:59:27.293Z,8.75
2024-02-03T21:01:54.474Z,8.85
2024-02-03T21:04:40.366Z,9.38
2024-02-03T21:07:10.014Z,7.85
2024-02-03T21:09:37.217Z,7.70
2024-02-03T21:12:04.479Z,9.95
2024-02-03T21:14:31.604Z,8.30
2024-02-03T21:16:59.536Z,8.20
2024-02-03T21:19:26.968Z,8.00
2024-02-03T21:21:54.228Z,9.10
2024-02-03T21:24:21.429Z,8.52
2024-02-03T21:26:49.429Z,10.20
2024-02-03T21:29:16.742Z,9.75
2024-02-03T21:31:43.964Z,9.20
2024-02-03T21:34:11.722Z,10.25
2024-02-03T21:36:38.959Z,8.63
2024-02-03T21:39:06.365Z,10.48
2024-02-03T21:41:33.922Z,10.50
2024-02-03T21:44:01.034Z,9.93
2024-02-03T21:46:28.152Z,9.73
2024-02-03T21:48:55.485Z,9.25
2024-02-03T21:51:22.766Z,9.63
2024-02-03T21:53:49.999Z,10.02
2024-02-03T21:56:18.574Z,9.52
2024-02-03T21:59:04.634Z,9.25
2024-02-03T22:01:32.597Z,9.63
2024-02-03T22:04:00.097Z,9.13
2024-02-03T22:06:27.347Z,9.02
2024-02-03T22:09:17.365Z,9.15
2024-02-03T22:11:45.386Z,9.98
2024-02-03T22:14:12.719Z,10.13
2024-02-03T22:16:40.593Z,9.30
2024-02-03T22:19:07.849Z,8.93
2024-02-03T22:21:35.060Z,10.30
2024-02-03T22:24:02.379Z,8.85
2024-02-03T22:26:29.456Z,10.13
2024-02-03T22:28:56.554Z,10.55
2024-02-03T22:31:23.678Z,10.27
2024-02-03T22:33:50.819Z,9.05
2024-02-03T22:36:17.962Z,8.82
2024-02-03T22:38:45.082Z,9.75
2024-02-03T22:41:12.232Z,9.25
2024-02-03T22:43:39.320Z,10.18
2024-02-03T22:46:07.628Z,9.05
2024-02-03T22:48:34.951Z,9.52
2024-02-03T22:51:20.752Z,8.85
2024-02-03T22:53:47.907Z,9.07
2024-02-03T22:56:14.991Z,8.60
2024-02-03T22:58:42.050Z,10.02
2024-02-03T23:01:09.271Z,9.40
2024-02-03T23:03:36.489Z,9.48
2024-02-03T23:06:04.285Z,9.45
2024-02-03T23:08:31.422Z,9.45
2024-02-03T23:11:17.270Z,9.15
2024-02-03T23:13:44.354Z,8.43
2024-02-03T23:16:11.530Z,9.32
2024-02-03T23:18:38.855Z,9.23
2024-02-03T23:21:07.628Z,9.23
2024-02-03T23:23:35.522Z,9.88
2024-02-03T23:26:02.727Z,11.00
2024-02-03T23:28:32.318Z,10.32
2024-02-03T23:31:02.779Z,9.07
2024-02-03T23:33:30.156Z,8.05
2024-02-03T23:36:16.125Z,8.68
2024-02-03T23:38:43.220Z,8.63
2024-02-03T23:43:54.738Z,8.95
2024-02-03T23:46:21.941Z,8.70
2024-02-03T23:48:49.209Z,9.88
2024-02-03T23:51:16.383Z,9.75
2024-02-03T23:53:43.456Z,9.32
2024-02-03T23:56:10.554Z,9.13
2024-02-03T23:58:38.718Z,8.63
